Time;durP1;ratioP1;P1;durP2;ratioP2;P2;SDS_P1;SDS_P2;PMS_P1;PMS_P2;Temp;Humidity;BMP_temperature;BMP_pressure;BME280_temperature;BME280_humidity;BME280_pressure;Samples;Min_cycle;Max_cycle;Signal;HPM_P1;HPM_P2
2023/09/24 00:00:10;;;;;;;8.75;3.38;;;12.40;99.90;;;;;;5066377;28;20499;-79
2023/09/24 00:02:39;;;;;;;14.35;3.92;;;12.50;99.90;;;;;;5053294;28;20044;-79
2023/09/24 00:05:06;;;;;;;12.88;4.20;;;12.50;99.90;;;;;;5082620;28;20036;-79
2023/09/24 00:07:32;;;;;;;11.77;3.53;;;12.50;99.90;;;;;;5079061;28;20044;-79
2023/09/24 00:10:00;;;;;;;6.10;3.10;;;12.50;99.90;;;;;;5073568;28;20132;-79
2023/09/24 00:12:27;;;;;;;10.80;3.65;;;12.50;99.90;;;;;;5070690;28;20052;-77
2023/09/24 00:14:53;;;;;;;14.13;3.58;;;12.50;99.90;;;;;;5078850;28;20460;-79
2023/09/24 00:17:19;;;;;;;8.27;3.38;;;12.50;99.90;;;;;;5062631;28;20047;-80
2023/09/24 00:19:45;;;;;;;10.88;3.10;;;12.50;99.90;;;;;;5071628;28;20028;-79
2023/09/24 00:22:14;;;;;;;10.23;3.50;;;12.50;99.90;;;;;;5062703;28;20045;-79
2023/09/24 00:24:40;;;;;;;10.93;3.13;;;12.40;99.90;;;;;;5073648;28;20051;-80
2023/09/24 00:27:06;;;;;;;8.98;2.80;;;12.40;99.90;;;;;;5073906;28;20040;-80
2023/09/24 00:29:31;;;;;;;9.00;3.03;;;12.40;99.90;;;;;;5087121;28;20072;-79
2023/09/24 00:31:57;;;;;;;12.88;3.20;;;12.30;99.90;;;;;;5073643;28;20561;-79
2023/09/24 00:34:23;;;;;;;6.75;3.10;;;12.30;99.90;;;;;;5063561;28;20094;-80
2023/09/24 00:36:50;;;;;;;10.05;3.38;;;12.30;99.90;;;;;;5071286;28;20467;-80
2023/09/24 00:39:17;;;;;;;12.40;3.47;;;12.20;99.90;;;;;;5060977;28;20041;-79
2023/09/24 00:41:45;;;;;;;12.75;3.17;;;12.20;99.90;;;;;;5069127;28;20048;-79
2023/09/24 00:44:14;;;;;;;8.30;2.95;;;12.20;99.90;;;;;;5056815;28;20076;-80
2023/09/24 00:46:44;;;;;;;6.93;3.38;;;12.20;99.90;;;;;;5071169;28;20054;-79
2023/09/24 00:49:12;;;;;;;9.85;3.20;;;12.20;99.90;;;;;;5066772;28;20048;-80
2023/09/24 00:51:39;;;;;;;11.10;3.72;;;12.10;99.90;;;;;;5069443;28;20482;-79
2023/09/24 00:54:06;;;;;;;13.57;3.60;;;12.10;99.90;;;;;;5070940;28;20044;-80
2023/09/24 00:56:33;;;;;;;11.65;4.00;;;12.00;99.90;;;;;;5067427;28;20037;-79
2023/09/24 00:58:59;;;;;;;9.98;4.75;;;12.00;99.90;;;;;;5061160;28;20094;-81
2023/09/24 01:01:25;;;;;;;12.25;4.35;;;12.00;99.90;;;;;;5061823;28;20048;-79
2023/09/24 01:03:52;;;;;;;11.48;4.60;;;12.00;99.90;;;;;;5070575;28;20036;-79
2023/09/24 01:06:18;;;;;;;8.85;4.28;;;12.00;99.90;;;;;;5082621;28;20049;-79
2023/09/24 01:08:44;;;;;;;14.63;4.05;;;12.00;99.90;;;;;;5078820;28;20342;-80
2023/09/24 01:11:12;;;;;;;13.20;4.28;;;11.90;99.90;;;;;;5069612;28;20108;-79
2023/09/24 01:13:42;;;;;;;6.35;3.63;;;11.90;99.90;;;;;;5090773;28;20119;-79
2023/09/24 01:16:12;;;;;;;6.80;3.80;;;11.90;99.90;;;;;;5063724;28;20052;-79
2023/09/24 01:18:41;;;;;;;11.20;3.50;;;11.90;99.90;;;;;;5068483;28;20116;-78
2023/09/24 01:21:11;;;;;;;10.27;3.63;;;11.90;99.90;;;;;;5075580;28;20039;-79
2023/09/24 01:23:38;;;;;;;10.50;3.83;;;11.90;99.90;;;;;;5086559;28;20391;-79
2023/09/24 01:26:05;;;;;;;9.25;3.67;;;11.90;99.90;;;;;;5065427;28;20045;-79
2023/09/24 01:28:31;;;;;;;10.20;3.55;;;11.80;99.90;;;;;;5069934;28;20055;-80
2023/09/24 01:30:57;;;;;;;8.82;3.60;;;11.80;99.90;;;;;;5085242;28;20033;-79
2023/09/24 01:33:23;;;;;;;8.23;3.60;;;11.80;99.90;;;;;;5063523;28;20080;-79
2023/09/24 01:35:52;;;;;;;11.65;3.83;;;11.80;99.90;;;;;;5068289;28;20037;-79
2023/09/24 01:38:18;;;;;;;10.27;3.40;;;11.80;99.90;;;;;;5053812;28;20047;-80
2023/09/24 01:40:44;;;;;;;9.07;3.85;;;11.80;99.90;;;;;;5068841;28;20055;-79
2023/09/24 01:43:10;;;;;;;12.68;4.05;;;11.80;99.90;;;;;;5047541;28;20474;-78
2023/09/24 01:45:39;;;;;;;7.13;3.60;;;11.80;99.90;;;;;;5073644;28;20066;-79
2023/09/24 01:48:09;;;;;;;7.63;3.80;;;11.80;99.90;;;;;;5070182;28;20045;-80
2023/09/24 01:50:36;;;;;;;11.05;3.55;;;11.80;99.90;;;;;;5054874;28;20552;-80
2023/09/24 01:53:08;;;;;;;9.35;3.55;;;11.80;99.90;;;;;;5053735;28;21077;-78
2023/09/24 01:55:36;;;;;;;10.70;3.22;;;11.80;99.90;;;;;;5059619;28;20081;-78
2023/09/24 01:58:02;;;;;;;11.82;3.70;;;11.70;99.90;;;;;;5084658;28;20027;-80
2023/09/24 02:00:28;;;;;;;11.55;3.42;;;11.70;99.90;;;;;;5067929;28;20037;-79
2023/09/24 02:02:57;;;;;;;8.57;3.30;;;11.80;99.90;;;;;;5070382;28;20059;-79
2023/09/24 02:05:23;;;;;;;8.98;4.05;;;11.70;99.90;;;;;;5065940;28;20045;-79
2023/09/24 02:07:49;;;;;;;9.80;3.63;;;11.70;99.90;;;;;;5070801;28;20045;-79
2023/09/24 02:10:23;;;;;;;9.45;3.08;;;11.70;99.90;;;;;;5047194;28;20135;-80
2023/09/24 02:12:48;;;;;;;10.27;3.58;;;11.60;99.90;;;;;;5053768;28;20120;-78
2023/09/24 02:15:18;;;;;;;10.38;4.00;;;11.60;99.90;;;;;;5062742;28;20198;-78
2023/09/24 02:17:45;;;;;;;8.40;2.83;;;11.60;99.90;;;;;;5077689;28;20036;-79
2023/09/24 02:22:58;;;;;;;8.15;3.30;;;11.60;99.90;;;;;;5072530;28;20044;-79
2023/09/24 02:25:31;;;;;;;9.27;3.13;;;11.50;99.90;;;;;;5071851;28;20113;-79
2023/09/24 02:27:58;;;;;;;12.45;3.40;;;11.60;99.90;;;;;;5071118;28;20033;-80
2023/09/24 02:30:27;;;;;;;8.77;3.50;;;11.50;99.90;;;;;;5077411;28;20064;-79
2023/09/24 02:32:57;;;;;;;12.18;3.60;;;11.50;99.90;;;;;;5074200;28;20057;-80
2023/09/24 02:35:24;;;;;;;15.13;3.40;;;11.50;99.90;;;;;;5061815;28;20041;-78
2023/09/24 02:37:51;;;;;;;9.05;3.40;;;11.50;99.90;;;;;;5073001;28;20443;-78
2023/09/24 02:40:22;;;;;;;10.48;3.50;;;11.60;99.90;;;;;;5066652;28;20399;-78
2023/09/24 02:42:53;;;;;;;7.63;2.88;;;11.60;99.90;;;;;;5060101;28;20152;-79
2023/09/24 02:45:19;;;;;;;7.15;3.08;;;11.60;99.90;;;;;;5070879;28;20055;-78
2023/09/24 02:47:49;;;;;;;6.57;3.17;;;11.60;99.90;;;;;;5074385;28;20047;-77
2023/09/24 02:50:15;;;;;;;11.40;2.92;;;11.60;99.90;;;;;;5070380;28;20074;-78
2023/09/24 02:52:42;;;;;;;6.15;3.08;;;11.70;99.90;;;;;;5067408;28;20087;-78
2023/09/24 02:55:16;;;;;;;8.73;3.55;;;11.70;99.90;;;;;;5071321;28;20041;-79
2023/09/24 02:57:44;;;;;;;9.18;3.45;;;11.70;99.90;;;;;;5086426;28;20071;-79
2023/09/24 03:00:12;;;;;;;6.80;3.03;;;11.70;99.90;;;;;;5081956;28;20040;-79
2023/09/24 03:02:39;;;;;;;8.52;3.83;;;11.70;99.90;;;;;;5073741;28;20045;-79
2023/09/24 03:05:11;;;;;;;9.35;3.70;;;11.70;99.90;;;;;;5086903;28;20134;-78
2023/09/24 03:07:37;;;;;;;9.45;3.72;;;11.70;99.90;;;;;;5079475;28;20045;-78
2023/09/24 03:10:07;;;;;;;9.68;3.63;;;11.70;99.90;;;;;;5079602;28;20062;-79
2023/09/24 03:12:34;;;;;;;7.85;3.97;;;11.70;99.90;;;;;;5081014;28;20136;-78
2023/09/24 03:15:01;;;;;;;8.68;4.00;;;11.70;99.90;;;;;;5076739;28;20072;-79
2023/09/24 03:17:27;;;;;;;6.35;4.22;;;11.70;99.90;;;;;;5086174;28;20052;-79
2023/09/24 03:19:53;;;;;;;9.32;4.60;;;11.70;99.90;;;;;;5059644;28;20049;-78
2023/09/24 03:22:21;;;;;;;12.20;4.63;;;11.70;99.90;;;;;;5095653;28;20051;-78
2023/09/24 03:24:50;;;;;;;8.38;4.25;;;11.70;99.90;;;;;;5075163;28;20095;-79
2023/09/24 03:27:20;;;;;;;11.30;5.10;;;11.70;99.90;;;;;;5070407;28;20069;-78
2023/09/24 03:29:46;;;;;;;9.85;5.03;;;11.70;99.90;;;;;;5071963;28;20040;-77
2023/09/24 03:32:12;;;;;;;10.25;4.97;;;11.70;99.90;;;;;;5066071;28;20052;-77
2023/09/24 03:34:38;;;;;;;9.60;5.05;;;11.70;99.90;;;;;;5074806;28;20041;-78
2023/09/24 03:37:06;;;;;;;8.50;5.03;;;11.80;99.90;;;;;;5071640;28;20044;-78
2023/09/24 03:39:32;;;;;;;8.98;4.88;;;11.90;99.90;;;;;;5079773;28;20049;-79
2023/09/24 03:41:57;;;;;;;10.55;5.10;;;11.80;99.90;;;;;;5067963;28;20106;-79
2023/09/24 03:44:24;;;;;;;10.57;5.00;;;12.30;99.90;;;;;;5062516;28;20047;-81
2023/09/24 03:46:52;;;;;;;9.88;4.78;;;11.80;99.90;;;;;;5068511;28;20037;-79
2023/09/24 03:49:21;;;;;;;15.00;5.95;;;11.80;99.90;;;;;;5078041;28;20045;-80
2023/09/24 03:51:46;;;;;;;9.15;5.25;;;11.80;99.90;;;;;;5077437;28;20044;-78
2023/09/24 03:54:12;;;;;;;10.23;5.00;;;11.80;99.90;;;;;;5091904;28;20501;-78
2023/09/24 03:56:39;;;;;;;11.02;5.53;;;11.80;99.90;;;;;;5075214;28;20039;-79
2023/09/24 03:59:05;;;;;;;9.07;5.40;;;11.80;99.90;;;;;;5074244;28;20516;-77
2023/09/24 04:01:31;;;;;;;10.50;6.30;;;11.80;99.90;;;;;;5067733;28;20048;-78
2023/09/24 04:03:59;;;;;;;12.30;5.90;;;11.90;99.90;;;;;;5075079;28;20061;-79
2023/09/24 04:06:25;;;;;;;10.43;5.50;;;11.80;99.90;;;;;;5093978;28;20040;-78
2023/09/24 04:08:53;;;;;;;9.10;6.00;;;11.80;99.90;;;;;;5064893;28;20503;-79
2023/09/24 04:11:19;;;;;;;13.52;5.68;;;11.80;99.90;;;;;;5090926;28;20478;-78
2023/09/24 04:13:45;;;;;;;9.48;6.00;;;11.80;99.90;;;;;;5082385;28;20072;-80
2023/09/24 04:16:14;;;;;;;11.02;6.15;;;11.80;99.90;;;;;;5043671;28;20488;-79
2023/09/24 04:18:44;;;;;;;9.65;5.70;;;11.70;99.90;;;;;;5073541;28;20051;-79
2023/09/24 04:21:17;;;;;;;12.20;6.60;;;12.30;99.90;;;;;;5070877;28;20447;-78
2023/09/24 04:23:44;;;;;;;14.55;6.75;;;11.70;99.90;;;;;;5071983;28;20048;-79
2023/09/24 04:26:22;;;;;;;10.77;6.45;;;11.70;99.90;;;;;;5075525;28;20048;-78
2023/09/24 04:28:50;;;;;;;9.60;6.05;;;11.70;99.90;;;;;;5094023;28;20044;-77
2023/09/24 04:31:16;;;;;;;9.65;6.32;;;11.60;99.90;;;;;;5067861;28;20380;-78
2023/09/24 04:33:44;;;;;;;13.80;7.03;;;11.60;99.90;;;;;;5084278;28;20044;-79
2023/09/24 04:36:10;;;;;;;11.35;7.22;;;11.60;99.90;;;;;;5075260;28;20098;-79
2023/09/24 04:38:36;;;;;;;12.30;6.72;;;11.50;99.90;;;;;;5079144;28;20045;-77
2023/09/24 04:41:03;;;;;;;13.77;7.10;;;11.50;99.90;;;;;;5066794;28;20546;-79
2023/09/24 04:43:29;;;;;;;13.07;7.18;;;11.50;99.90;;;;;;5061178;28;20479;-79
2023/09/24 04:45:54;;;;;;;12.05;7.03;;;11.50;99.90;;;;;;5063499;28;20045;-79
2023/09/24 04:48:20;;;;;;;10.05;6.80;;;11.50;99.90;;;;;;5061438;28;20093;-78
2023/09/24 04:50:46;;;;;;;16.27;7.53;;;11.40;99.90;;;;;;5074313;28;20037;-79
2023/09/24 04:53:15;;;;;;;14.10;6.93;;;11.40;99.90;;;;;;5072508;28;20044;-78
2023/09/24 04:55:40;;;;;;;13.15;6.82;;;11.40;99.90;;;;;;5082822;28;20517;-78
2023/09/24 04:58:06;;;;;;;11.20;7.22;;;11.40;99.90;;;;;;5070001;28;20040;-77
2023/09/24 05:00:32;;;;;;;20.75;7.05;;;11.40;99.90;;;;;;5069610;28;20045;-78
2023/09/24 05:02:57;;;;;;;9.52;6.65;;;11.40;99.90;;;;;;5073462;28;20048;-78
2023/09/24 05:05:23;;;;;;;12.07;7.10;;;11.40;99.90;;;;;;5080878;28;20039;-78
2023/09/24 05:07:50;;;;;;;12.68;6.82;;;11.30;99.90;;;;;;5081129;28;20080;-78
2023/09/24 05:10:16;;;;;;;14.88;7.10;;;11.30;99.90;;;;;;5076922;28;20048;-77
2023/09/24 05:12:42;;;;;;;12.45;7.25;;;11.30;99.90;;;;;;5078943;28;20040;-78
2023/09/24 05:15:08;;;;;;;17.45;7.32;;;11.30;99.90;;;;;;5076614;28;20614;-77
2023/09/24 05:17:33;;;;;;;16.20;7.38;;;11.30;99.90;;;;;;5076091;28;20483;-77
2023/09/24 05:19:59;;;;;;;14.50;7.18;;;11.30;99.90;;;;;;5087640;28;20052;-77
2023/09/24 05:22:27;;;;;;;13.25;7.38;;;11.30;99.90;;;;;;5067232;28;20048;-77
2023/09/24 05:24:53;;;;;;;14.90;6.93;;;11.30;99.90;;;;;;5077945;28;20045;-78
2023/09/24 05:27:19;;;;;;;18.52;7.97;;;11.20;99.90;;;;;;5093137;28;20047;-77
2023/09/24 05:29:49;;;;;;;12.50;7.40;;;11.20;99.90;;;;;;5062272;28;20052;-79
2023/09/24 05:32:14;;;;;;;12.05;6.82;;;11.20;99.90;;;;;;5068808;28;20068;-79
2023/09/24 05:34:40;;;;;;;10.85;6.47;;;11.20;99.90;;;;;;5068423;28;20053;-78
2023/09/24 05:37:06;;;;;;;12.00;6.47;;;11.50;99.90;;;;;;5056926;28;20112;-77
2023/09/24 05:39:35;;;;;;;14.23;6.82;;;11.20;99.90;;;;;;5055488;28;20044;-78
2023/09/24 05:42:02;;;;;;;12.95;6.15;;;11.20;99.90;;;;;;5069556;28;20037;-80
2023/09/24 05:44:32;;;;;;;10.35;6.35;;;11.20;99.90;;;;;;5068240;28;20053;-78
2023/09/24 05:46:58;;;;;;;15.93;7.07;;;11.20;99.90;;;;;;5065321;28;20036;-79
2023/09/24 05:49:24;;;;;;;10.18;6.43;;;11.20;99.90;;;;;;5077014;28;20050;-79
2023/09/24 05:51:49;;;;;;;12.85;6.50;;;11.20;99.90;;;;;;5073398;28;20119;-78
2023/09/24 05:54:16;;;;;;;10.82;6.35;;;11.20;99.90;;;;;;5057290;28;20045;-79
2023/09/24 05:56:43;;;;;;;16.80;6.97;;;11.20;99.90;;;;;;5066054;28;20041;-79
2023/09/24 05:59:08;;;;;;;17.75;6.97;;;11.20;99.90;;;;;;5067919;28;20090;-78
2023/09/24 06:01:35;;;;;;;17.70;6.90;;;11.20;99.90;;;;;;5069921;28;20041;-79
2023/09/24 06:04:01;;;;;;;14.25;6.70;;;11.20;99.90;;;;;;5063288;28;20049;-80
2023/09/24 06:06:27;;;;;;;14.13;6.72;;;11.20;99.90;;;;;;5067087;28;20044;-80
2023/09/24 06:08:56;;;;;;;12.27;6.82;;;11.20;99.90;;;;;;5076075;28;20042;-79
2023/09/24 06:11:22;;;;;;;12.15;5.93;;;11.20;99.90;;;;;;5056160;28;20052;-78
2023/09/24 06:13:48;;;;;;;16.63;6.00;;;11.30;99.90;;;;;;5082750;28;20084;-82
2023/09/24 06:16:14;;;;;;;12.57;6.65;;;11.30;99.90;;;;;;5047241;28;20084;-80
2023/09/24 06:18:39;;;;;;;12.95;6.45;;;11.30;99.90;;;;;;5071768;28;20059;-78
2023/09/24 06:21:05;;;;;;;13.50;6.13;;;11.30;99.90;;;;;;5067583;28;21146;-79
2023/09/24 06:23:31;;;;;;;17.23;6.40;;;11.30;99.90;;;;;;5064099;28;21030;-79
2023/09/24 06:25:58;;;;;;;14.95;6.70;;;11.30;99.90;;;;;;5064621;28;20051;-80
2023/09/24 06:28:24;;;;;;;12.48;6.85;;;11.30;99.90;;;;;;5062971;28;20071;-79
2023/09/24 06:31:04;;;;;;;12.30;6.97;;;11.30;99.90;;;;;;5068010;28;20041;-78
2023/09/24 06:33:29;;;;;;;16.42;6.13;;;11.40;99.90;;;;;;5069004;28;20052;-79
2023/09/24 06:35:56;;;;;;;13.85;6.30;;;11.40;99.90;;;;;;5050841;28;20127;-79
2023/09/24 06:38:22;;;;;;;13.40;6.32;;;11.50;99.90;;;;;;5067016;28;20045;-78
2023/09/24 06:40:56;;;;;;;12.38;6.68;;;11.60;99.90;;;;;;5067410;28;20102;-79
2023/09/24 06:43:24;;;;;;;14.07;6.28;;;11.80;99.90;;;;;;5067364;28;20041;-79
2023/09/24 06:45:50;;;;;;;;;;;12.50;99.90;;;;;;5075242;28;20033;-79
2023/09/24 06:48:16;;;;;;;11.43;5.57;;;12.40;99.90;;;;;;5065920;28;19955;-79
2023/09/24 06:50:42;;;;;;;16.85;5.72;;;12.50;99.90;;;;;;5064970;28;20036;-79
2023/09/24 06:53:08;;;;;;;9.45;5.93;;;12.50;99.90;;;;;;5058222;28;20048;-79
2023/09/24 06:55:39;;;;;;;9.63;5.50;;;12.60;99.90;;;;;;5045311;28;20056;-78
2023/09/24 06:58:04;;;;;;;12.13;6.10;;;12.70;99.90;;;;;;5064947;28;20044;-78
2023/09/24 07:00:30;;;;;;;14.88;5.72;;;12.60;99.90;;;;;;5075001;28;20051;-79
2023/09/24 07:02:56;;;;;;;10.38;5.68;;;12.70;99.90;;;;;;5080634;28;20041;-80
2023/09/24 07:05:21;;;;;;;9.02;5.20;;;12.70;99.90;;;;;;5059738;28;20041;-81
2023/09/24 07:07:47;;;;;;;13.57;5.68;;;12.80;99.90;;;;;;5062965;28;20566;-80
2023/09/24 07:10:13;;;;;;;14.40;5.90;;;12.80;99.90;;;;;;5071846;28;20189;-78
2023/09/24 07:12:39;;;;;;;12.02;5.45;;;12.90;99.90;;;;;;5071704;28;20751;-79
2023/09/24 07:15:06;;;;;;;9.00;5.32;;;12.90;99.90;;;;;;5056435;28;20041;-80
2023/09/24 07:17:33;;;;;;;11.35;5.95;;;12.90;99.90;;;;;;5063025;28;20044;-78
2023/09/24 07:20:00;;;;;;;10.43;5.65;;;13.00;99.90;;;;;;5080347;28;20106;-80
2023/09/24 07:22:27;;;;;;;14.88;6.18;;;13.00;99.90;;;;;;5060092;28;20384;-79
2023/09/24 07:24:53;;;;;;;12.98;5.43;;;13.10;99.90;;;;;;5075461;28;20060;-80
2023/09/24 07:27:19;;;;;;;12.40;6.03;;;13.90;99.90;;;;;;5087184;28;20040;-80
2023/09/24 07:29:45;;;;;;;14.85;5.72;;;13.20;99.90;;;;;;5070348;28;20067;-79
2023/09/24 07:32:12;;;;;;;13.63;5.55;;;13.30;99.90;;;;;;5080815;28;20409;-80
2023/09/24 07:34:38;;;;;;;11.77;5.30;;;13.40;99.90;;;;;;5072819;28;20102;-81
2023/09/24 07:37:06;;;;;;;9.30;5.00;;;13.40;99.90;;;;;;5073109;28;20426;-81
2023/09/24 07:39:35;;;;;;;13.32;5.50;;;13.50;99.90;;;;;;5084595;28;20055;-79
2023/09/24 07:42:01;;;;;;;10.00;5.30;;;13.50;99.90;;;;;;5091130;28;20040;-81
2023/09/24 07:44:27;;;;;;;11.60;5.50;;;13.60;99.90;;;;;;5079179;28;20437;-81
2023/09/24 07:46:53;;;;;;;8.38;5.03;;;13.70;99.90;;;;;;5077068;28;20044;-81
2023/09/24 07:49:19;;;;;;;11.32;4.95;;;13.70;99.90;;;;;;5067747;28;20045;-79
2023/09/24 07:51:45;;;;;;;14.95;5.40;;;13.80;99.90;;;;;;5075034;28;20055;-81
2023/09/24 07:54:11;;;;;;;11.65;4.72;;;13.90;99.90;;;;;;5072936;28;20044;-79
2023/09/24 07:56:42;;;;;;;13.20;5.05;;;14.00;99.90;;;;;;5081359;28;20029;-81
2023/09/24 07:59:11;;;;;;;9.85;5.15;;;14.10;99.90;;;;;;5088962;28;20053;-81
2023/09/24 08:01:38;;;;;;;9.30;4.57;;;14.20;99.90;;;;;;5069685;28;20040;-82
2023/09/24 08:04:05;;;;;;;13.75;4.97;;;14.20;99.90;;;;;;5079903;28;20045;-80
2023/09/24 08:06:31;;;;;;;11.43;5.30;;;14.30;99.90;;;;;;5090223;28;20036;-79
2023/09/24 08:08:58;;;;;;;10.55;4.68;;;14.40;99.90;;;;;;5078935;28;20808;-81
2023/09/24 08:11:24;;;;;;;14.70;5.15;;;14.40;99.90;;;;;;5066479;28;20451;-80
2023/09/24 08:13:51;;;;;;;13.88;4.90;;;14.60;99.90;;;;;;5074048;28;20076;-82
2023/09/24 08:16:26;;;;;;;8.95;4.65;;;14.70;99.90;;;;;;5073399;28;20072;-81
2023/09/24 08:18:52;;;;;;;10.73;4.90;;;14.90;99.90;;;;;;5085654;28;20134;-80
2023/09/24 08:21:18;;;;;;;9.07;4.30;;;14.90;99.90;;;;;;5072574;28;20036;-82
2023/09/24 08:23:44;;;;;;;9.15;4.20;;;15.20;99.90;;;;;;5070086;28;20056;-82
2023/09/24 08:26:10;;;;;;;10.95;5.43;;;15.10;99.90;;;;;;5080960;28;20383;-81
2023/09/24 08:28:36;;;;;;;10.63;4.93;;;15.10;99.90;;;;;;5083721;28;20070;-84
2023/09/24 08:31:12;;;;;;;12.45;5.10;;;15.20;99.90;;;;;;5084817;28;20033;-82
2023/09/24 08:33:38;;;;;;;7.95;4.40;;;15.20;99.90;;;;;;5088376;28;20037;-81
2023/09/24 08:36:08;;;;;;;9.68;4.25;;;15.30;99.90;;;;;;5072975;28;20051;-83
2023/09/24 08:38:34;;;;;;;11.82;4.35;;;15.40;99.90;;;;;;5072488;28;20055;-81
2023/09/24 08:41:00;;;;;;;9.73;3.92;;;15.50;99.90;;;;;;5077335;28;20045;-80
2023/09/24 08:43:30;;;;;;;7.90;4.07;;;15.60;99.90;;;;;;5089675;28;20051;-81
2023/09/24 08:45:56;;;;;;;13.35;4.30;;;15.80;99.90;;;;;;5080904;28;20043;-81
2023/09/24 08:48:22;;;;;;;10.35;4.35;;;15.90;99.90;;;;;;5072516;28;20544;-84
2023/09/24 08:50:48;;;;;;;13.10;3.85;;;16.00;99.90;;;;;;5060370;28;20058;-80
2023/09/24 08:53:16;;;;;;;8.55;4.30;;;16.20;99.90;;;;;;5074118;28;20047;-82
2023/09/24 08:55:46;;;;;;;7.85;3.42;;;16.30;99.90;;;;;;5089368;28;20082;-83
2023/09/24 08:58:12;;;;;;;7.63;3.58;;;16.50;99.90;;;;;;5064125;28;20045;-84
2023/09/24 09:00:44;;;;;;;7.45;3.45;;;16.50;99.90;;;;;;5070889;28;20166;-82
2023/09/24 09:03:11;;;;;;;8.82;3.72;;;16.20;99.90;;;;;;5086240;28;20052;-81
2023/09/24 09:05:38;;;;;;;11.73;4.17;;;16.80;99.90;;;;;;5054346;28;20059;-80
2023/09/24 09:08:04;;;;;;;9.80;3.67;;;16.80;99.90;;;;;;5088039;28;20306;-83
2023/09/24 09:10:32;;;;;;;8.68;3.75;;;17.00;99.90;;;;;;5083937;28;20034;-82
2023/09/24 09:13:05;;;;;;;6.63;3.60;;;17.90;99.90;;;;;;5058192;28;20111;-82
2023/09/24 09:15:32;;;;;;;9.80;3.40;;;17.30;99.90;;;;;;5084887;28;20040;-82
2023/09/24 09:17:58;;;;;;;8.27;3.10;;;17.40;99.90;;;;;;5066061;28;20045;-82
2023/09/24 09:20:44;;;;;;;9.48;3.40;;;17.40;99.90;;;;;;5068545;28;20048;-81
2023/09/24 09:23:13;;;;;;;8.75;3.28;;;17.50;99.90;;;;;;5064513;28;20052;-81
2023/09/24 09:25:52;;;;;;;11.32;3.10;;;17.60;99.90;;;;;;5067435;28;20459;-81
2023/09/24 09:28:27;;;;;;;7.97;3.03;;;17.70;99.90;;;;;;5061478;28;20053;-83
2023/09/24 09:31:10;;;;;;;6.53;2.63;;;17.80;99.90;;;;;;5084307;28;20056;-82
2023/09/24 09:33:43;;;;;;;11.30;3.38;;;18.00;99.90;;;;;;5078463;28;20053;-81
2023/09/24 09:36:23;;;;;;;9.57;3.65;;;18.10;99.90;;;;;;5076850;28;20049;-82
2023/09/24 09:39:00;;;;;;;7.30;2.88;;;18.20;99.90;;;;;;5076447;28;20044;-81
2023/09/24 09:41:28;;;;;;;8.07;3.22;;;18.40;99.90;;;;;;5072590;28;20108;-81
2023/09/24 09:43:54;;;;;;;12.35;3.45;;;18.40;99.90;;;;;;5070975;28;20041;-82
2023/09/24 09:46:23;;;;;;;7.93;3.15;;;18.50;99.90;;;;;;5074171;28;20048;-82
2023/09/24 09:48:56;;;;;;;8.40;3.13;;;18.70;99.90;;;;;;5076190;28;20037;-83
2023/09/24 09:51:27;;;;;;;7.72;2.88;;;18.80;99.90;;;;;;5072490;28;20044;-82
2023/09/24 09:53:54;;;;;;;7.63;2.90;;;19.00;99.90;;;;;;5067396;28;20037;-82
2023/09/24 09:56:23;;;;;;;8.98;3.25;;;19.00;99.90;;;;;;5054525;28;20076;-82
2023/09/24 09:58:51;;;;;;;5.78;2.58;;;19.10;99.90;;;;;;5071060;28;20046;-83
2023/09/24 10:01:20;;;;;;;5.78;2.67;;;18.40;99.90;;;;;;5074448;28;20406;-82
2023/09/24 10:03:47;;;;;;;7.43;2.50;;;19.90;99.90;;;;;;5075914;28;20088;-83
2023/09/24 10:06:14;;;;;;;6.82;2.88;;;19.40;99.90;;;;;;5058780;28;20060;-83
2023/09/24 10:08:45;;;;;;;6.57;2.97;;;19.60;99.90;;;;;;5060460;28;20049;-81
2023/09/24 10:11:32;;;;;;;8.45;2.53;;;19.80;99.90;;;;;;5074517;28;20509;-82
2023/09/24 10:14:04;;;;;;;9.07;3.03;;;19.90;99.90;;;;;;5079341;28;20040;-82
2023/09/24 10:16:38;;;;;;;8.40;2.60;;;20.00;99.90;;;;;;5074308;28;20184;-83
2023/09/24 10:19:08;;;;;;;8.68;2.83;;;20.10;99.90;;;;;;5071874;28;20056;-82
2023/09/24 10:21:42;;;;;;;4.10;1.90;;;20.30;99.90;;;;;;5069962;28;20421;-81
2023/09/24 10:24:14;;;;;;;8.88;2.67;;;20.50;99.90;;;;;;5073690;28;20064;-82
2023/09/24 10:27:03;;;;;;;7.93;2.60;;;20.70;99.90;;;;;;5060680;28;20044;-83
2023/09/24 10:30:03;;;;;;;8.07;2.40;;;20.90;99.90;;;;;;5080354;28;20041;-82
2023/09/24 10:32:43;;;;;;;5.38;1.98;;;21.00;99.90;;;;;;5072981;28;20040;-79
2023/09/24 10:35:12;;;;;;;6.97;2.22;;;21.00;99.90;;;;;;5080941;28;20036;-81
2023/09/24 10:37:57;;;;;;;9.43;2.40;;;21.10;99.90;;;;;;5060163;28;20043;-82
2023/09/24 10:40:26;;;;;;;5.82;2.20;;;21.20;99.90;;;;;;5093983;28;20048;-82
2023/09/24 10:43:13;;;;;;;9.23;2.72;;;21.30;99.90;;;;;;5051278;28;20086;-80
2023/09/24 10:45:39;;;;;;;9.70;2.38;;;21.50;99.90;;;;;;5099059;28;20044;-81
2023/09/24 10:48:08;;;;;;;9.68;2.50;;;21.60;99.90;;;;;;5081352;28;20131;-82
2023/09/24 10:50:38;;;;;;;7.22;2.15;;;21.70;99.90;;;;;;5061972;28;20044;-82
2023/09/24 10:53:07;;;;;;;5.68;2.40;;;21.80;99.90;;;;;;5073950;28;20033;-81
2023/09/24 10:55:36;;;;;;;9.60;2.72;;;21.90;99.90;;;;;;5081790;28;20045;-81
2023/09/24 10:58:05;;;;;;;5.15;2.33;;;22.10;99.90;;;;;;5084501;28;20084;-79
2023/09/24 11:00:32;;;;;;;9.88;2.40;;;22.30;99.90;;;;;;5076991;28;20545;-81
2023/09/24 11:03:03;;;;;;;6.50;2.42;;;22.40;99.90;;;;;;5075320;28;20041;-79
2023/09/24 11:05:36;;;;;;;5.03;2.13;;;22.50;99.90;;;;;;5069924;28;20048;-81
2023/09/24 11:08:02;;;;;;;7.93;2.63;;;22.50;99.90;;;;;;5070476;28;20036;-81
2023/09/24 11:10:28;;;;;;;5.75;2.13;;;22.50;99.90;;;;;;5080825;28;20390;-81
2023/09/24 11:12:56;;;;;;;6.60;2.20;;;22.70;99.90;;;;;;5070019;28;20059;-82
2023/09/24 11:15:24;;;;;;;6.60;2.10;;;22.90;99.90;;;;;;5065951;28;20045;-83
2023/09/24 11:17:51;;;;;;;7.95;2.40;;;23.10;99.90;;;;;;5092457;28;20175;-81
2023/09/24 11:20:20;;;;;;;7.25;2.33;;;23.30;99.70;;;;;;5083313;28;20033;-82
2023/09/24 11:22:55;;;;;;;6.20;2.10;;;23.30;99.10;;;;;;5058526;28;20128;-80
2023/09/24 11:25:21;;;;;;;6.38;2.45;;;23.20;97.60;;;;;;5070730;28;20052;-82
2023/09/24 11:27:52;;;;;;;7.50;2.00;;;23.20;98.30;;;;;;5072074;28;20507;-80
2023/09/24 11:30:21;;;;;;;7.30;2.45;;;23.20;97.80;;;;;;5063730;28;20041;-82
2023/09/24 11:32:49;;;;;;;5.95;2.10;;;23.20;97.70;;;;;;5068869;28;20052;-82
2023/09/24 11:35:20;;;;;;;6.05;2.10;;;23.10;98.00;;;;;;5052577;28;20558;-80
2023/09/24 11:37:48;;;;;;;7.82;2.40;;;23.00;97.50;;;;;;5069379;28;20044;-80
2023/09/24 11:40:34;;;;;;;6.90;2.53;;;22.90;97.70;;;;;;5068877;28;20424;-81
2023/09/24 11:43:20;;;;;;;9.45;2.40;;;22.80;94.60;;;;;;5070708;28;20036;-82
2023/09/24 11:45:53;;;;;;;7.38;2.25;;;22.70;95.50;;;;;;5061594;28;20052;-81
2023/09/24 11:48:21;;;;;;;4.65;2.05;;;22.60;97.40;;;;;;5093423;28;20433;-82
2023/09/24 11:51:03;;;;;;;5.60;2.22;;;22.40;96.90;;;;;;5055594;28;20089;-80
2023/09/24 11:53:29;;;;;;;5.43;2.15;;;22.30;96.10;;;;;;5070763;28;20563;-81
2023/09/24 11:55:57;;;;;;;7.18;2.20;;;22.30;97.70;;;;;;5076479;28;20045;-82
2023/09/24 11:58:26;;;;;;;6.28;2.08;;;22.40;97.40;;;;;;5065668;28;20037;-82
2023/09/24 12:00:56;;;;;;;6.75;2.15;;;22.30;96.80;;;;;;5064925;28;20041;-83
2023/09/24 12:03:26;;;;;;;7.22;2.22;;;22.30;97.20;;;;;;5074370;28;20057;-83
2023/09/24 12:05:54;;;;;;;6.05;2.42;;;22.30;97.10;;;;;;5063773;28;20041;-82
2023/09/24 12:08:22;;;;;;;6.57;2.10;;;22.20;97.40;;;;;;5061646;28;20037;-82
2023/09/24 12:10:47;;;;;;;6.18;1.90;;;22.20;96.60;;;;;;5080219;28;20051;-80
2023/09/24 12:13:14;;;;;;;4.85;2.05;;;22.30;96.90;;;;;;5073036;28;20037;-82
2023/09/24 12:15:40;;;;;;;12.18;2.40;;;22.30;96.20;;;;;;5066001;28;20395;-82
2023/09/24 12:18:07;;;;;;;6.97;2.67;;;22.30;96.10;;;;;;5045622;28;20045;-81
2023/09/24 12:20:37;;;;;;;8.82;2.03;;;22.20;96.40;;;;;;5063123;28;20055;-84
2023/09/24 12:23:06;;;;;;;6.72;2.00;;;22.40;95.80;;;;;;5063755;28;20040;-81
2023/09/24 12:25:35;;;;;;;4.78;1.80;;;22.60;95.80;;;;;;5077522;28;20113;-82
2023/09/24 12:28:09;;;;;;;4.50;2.00;;;22.80;95.50;;;;;;5061339;28;20080;-82
2023/09/24 12:30:35;;;;;;;6.65;1.77;;;22.90;94.40;;;;;;5079242;28;20055;-81
2023/09/24 12:33:01;;;;;;;4.60;1.97;;;23.20;95.10;;;;;;5054289;28;20084;-82
2023/09/24 12:35:28;;;;;;;4.53;1.92;;;23.20;95.00;;;;;;5054786;28;20052;-81
2023/09/24 12:37:54;;;;;;;3.80;1.80;;;23.50;94.50;;;;;;5073860;28;20071;-82
2023/09/24 12:40:22;;;;;;;4.70;1.80;;;23.60;94.20;;;;;;5047063;28;20049;-82
2023/09/24 12:42:48;;;;;;;4.30;1.77;;;23.80;92.70;;;;;;5075076;28;20044;-81
2023/09/24 12:45:16;;;;;;;7.05;2.17;;;24.00;92.00;;;;;;5078895;28;20114;-82
2023/09/24 12:47:41;;;;;;;7.22;1.90;;;24.10;92.30;;;;;;5076118;28;20052;-81
2023/09/24 12:50:12;;;;;;;8.20;1.70;;;24.10;91.50;;;;;;5051940;28;20527;-81